Time;durP1;ratioP1;P1;durP2;ratioP2;P2;SDS_P1;SDS_P2;PMS_P1;PMS_P2;Temp;Humidity;BMP_temperature;BMP_pressure;BME280_temperature;BME280_humidity;BME280_pressure;Samples;Min_cycle;Max_cycle;Signal;HPM_P1;HPM_P2
2022/04/17 00:00:04;;;;;;;11.40;8.57;;;;;;;;;;5072568;28;20446;-53
2022/04/17 00:02:30;;;;;;;10.90;9.00;;;;;;;;;;5072797;28;20437;-54
2022/04/17 00:04:56;;;;;;;11.47;8.70;;;;;;;;;;5072835;28;21019;-53
2022/04/17 00:07:22;;;;;;;13.23;8.03;;;;;;;;;;5072746;28;20199;-54
2022/04/17 00:09:50;;;;;;;10.67;7.57;;;;;;;;;;5072419;28;20227;-54
2022/04/17 00:12:16;;;;;;;10.17;7.97;;;;;;;;;;5072675;28;20249;-55
2022/04/17 00:14:43;;;;;;;28.17;21.50;;;;;;;;;;5072984;28;20434;-54
2022/04/17 00:17:10;;;;;;;16.73;11.10;;;;;;;;;;5073164;28;20248;-54
2022/04/17 00:19:36;;;;;;;14.07;8.67;;;;;;;;;;5073082;28;21316;-54
2022/04/17 00:22:02;;;;;;;11.90;7.67;;;;;;;;;;5072907;28;20521;-56
2022/04/17 00:24:28;;;;;;;11.83;8.70;;;;;;;;;;5072875;28;20231;-53
2022/04/17 00:26:57;;;;;;;14.30;7.43;;;;;;;;;;5071615;28;20434;-54
2022/04/17 00:29:23;;;;;;;11.07;8.10;;;;;;;;;;5072700;28;20232;-57
2022/04/17 00:31:49;;;;;;;8.30;6.90;;;;;;;;;;5072962;28;20437;-54
2022/04/17 00:34:15;;;;;;;11.70;8.83;;;;;;;;;;5072839;28;20610;-54
2022/04/17 00:36:41;;;;;;;12.80;8.60;;;;;;;;;;5072757;28;20290;-52
2022/04/17 00:39:07;;;;;;;11.43;8.17;;;;;;;;;;5072463;28;20215;-56
2022/04/17 00:41:39;;;;;;;10.13;8.20;;;;;;;;;;5072993;28;20850;-54
2022/04/17 00:44:11;;;;;;;27.90;20.20;;;;;;;;;;5069080;28;20195;-54
2022/04/17 00:46:38;;;;;;;12.77;9.80;;;;;;;;;;5072349;28;20442;-54
2022/04/17 00:49:04;;;;;;;13.93;9.43;;;;;;;;;;5071945;28;20437;-53
2022/04/17 00:51:31;;;;;;;11.87;8.10;;;;;;;;;;5072656;28;20442;-53
2022/04/17 00:53:57;;;;;;;12.40;8.27;;;;;;;;;;5072694;28;20994;-54
2022/04/17 00:56:25;;;;;;;10.87;8.23;;;;;;;;;;5072593;28;20481;-54
2022/04/17 00:58:51;;;;;;;11.77;8.30;;;;;;;;;;5072550;28;20449;-54
2022/04/17 01:01:18;;;;;;;12.13;7.93;;;;;;;;;;5072442;28;20430;-54
2022/04/17 01:03:44;;;;;;;13.93;9.03;;;;;;;;;;5072661;28;20696;-54
2022/04/17 01:06:10;;;;;;;12.13;8.70;;;;;;;;;;5072638;28;20434;-54
2022/04/17 01:08:41;;;;;;;14.73;10.13;;;;;;;;;;5072200;28;20516;-53
2022/04/17 01:11:07;;;;;;;13.47;9.00;;;;;;;;;;5072303;28;20470;-52
2022/04/17 01:13:33;;;;;;;11.07;8.07;;;;;;;;;;5072376;28;20487;-55
2022/04/17 01:16:01;;;;;;;13.67;8.70;;;;;;;;;;5072359;28;20323;-54
2022/04/17 01:18:29;;;;;;;10.67;8.20;;;;;;;;;;5072379;28;20520;-57
2022/04/17 01:20:55;;;;;;;13.67;9.07;;;;;;;;;;5072266;28;20813;-54
2022/04/17 01:29:10;;;;;;;14.07;8.77;;;;;;;;;;5068947;28;20437;-53
2022/04/17 01:31:36;;;;;;;13.13;8.60;;;;;;;;;;5071961;28;20985;-53
2022/04/17 01:34:02;;;;;;;11.97;8.70;;;;;;;;;;5071853;28;20944;-54
2022/04/17 01:36:28;;;;;;;10.33;7.67;;;;;;;;;;5072238;28;20429;-52
2022/04/17 01:38:55;;;;;;;12.60;8.63;;;;;;;;;;5072111;28;20966;-53
2022/04/17 01:41:21;;;;;;;11.93;8.53;;;;;;;;;;5071330;28;20195;-54
2022/04/17 01:43:47;;;;;;;11.47;8.50;;;;;;;;;;5071976;28;20438;-54
2022/04/17 01:46:13;;;;;;;10.20;8.03;;;;;;;;;;5071895;28;20199;-53
2022/04/17 01:48:39;;;;;;;10.77;7.90;;;;;;;;;;5072068;28;20700;-53
2022/04/17 01:51:05;;;;;;;10.47;8.13;;;;;;;;;;5071017;28;20223;-53
2022/04/17 01:53:31;;;;;;;13.03;8.63;;;;;;;;;;5071884;28;20440;-53
2022/04/17 01:56:00;;;;;;;11.23;8.03;;;;;;;;;;5072005;28;20199;-53
2022/04/17 01:58:26;;;;;;;12.13;9.07;;;;;;;;;;5071482;28;20666;-56
2022/04/17 02:00:52;;;;;;;13.17;8.87;;;;;;;;;;5071882;28;20438;-54
2022/04/17 02:03:18;;;;;;;12.83;8.70;;;;;;;;;;5071681;28;20437;-53
2022/04/17 02:05:44;;;;;;;11.07;7.77;;;;;;;;;;5071880;28;20196;-52
2022/04/17 02:08:15;;;;;;;9.90;7.77;;;;;;;;;;5071561;28;20949;-52
2022/04/17 02:10:41;;;;;;;11.30;8.53;;;;;;;;;;5072019;28;20310;-52
2022/04/17 02:13:08;;;;;;;10.87;8.27;;;;;;;;;;5071868;28;20731;-53
2022/04/17 02:15:34;;;;;;;10.20;8.00;;;;;;;;;;5071660;28;20452;-53
2022/04/17 02:18:00;;;;;;;10.40;8.53;;;;;;;;;;5071554;28;20429;-53
2022/04/17 02:20:26;;;;;;;12.70;8.97;;;;;;;;;;5071642;28;20196;-55
2022/04/17 02:22:52;;;;;;;10.27;8.63;;;;;;;;;;5071515;28;20433;-53
2022/04/17 02:25:18;;;;;;;12.33;8.50;;;;;;;;;;5071350;28;20896;-57
2022/04/17 02:27:44;;;;;;;12.83;8.60;;;;;;;;;;5071555;28;20207;-53
2022/04/17 02:30:12;;;;;;;13.17;8.53;;;;;;;;;;5071540;28;20262;-53
2022/04/17 02:32:38;;;;;;;11.67;8.23;;;;;;;;;;5071601;28;20199;-54
2022/04/17 02:35:04;;;;;;;12.03;8.67;;;;;;;;;;5071146;28;20517;-53
2022/04/17 02:37:30;;;;;;;11.13;8.83;;;;;;;;;;5071686;28;20463;-53
2022/04/17 02:39:56;;;;;;;15.83;8.93;;;;;;;;;;5071473;28;20528;-52
2022/04/17 02:42:22;;;;;;;14.33;9.53;;;;;;;;;;5071496;28;20196;-53
2022/04/17 02:44:48;;;;;;;13.80;9.67;;;;;;;;;;5071127;28;20445;-53
2022/04/17 02:50:01;;;;;;;17.10;10.17;;;;;;;;;;5071434;28;20308;-53
2022/04/17 02:52:27;;;;;;;12.67;9.10;;;;;;;;;;5071454;28;20430;-52
2022/04/17 02:54:56;;;;;;;12.23;9.03;;;;;;;;;;5071200;28;20811;-53
2022/04/17 02:57:22;;;;;;;12.27;9.20;;;;;;;;;;5071037;28;20295;-53
2022/04/17 02:59:48;;;;;;;14.97;9.93;;;;;;;;;;5071263;28;20429;-53
2022/04/17 03:07:44;;;;;;;13.50;10.13;;;;;;;;;;5074823;28;20417;-53
2022/04/17 03:10:10;;;;;;;10.77;8.43;;;;;;;;;;5074613;28;20491;-53
2022/04/17 03:12:36;;;;;;;11.60;9.17;;;;;;;;;;5074447;28;20206;-53
2022/04/17 03:15:02;;;;;;;13.97;9.13;;;;;;;;;;5074351;28;20438;-53
2022/04/17 03:17:30;;;;;;;12.40;8.73;;;;;;;;;;5074596;28;20426;-53
2022/04/17 03:19:56;;;;;;;12.70;8.57;;;;;;;;;;5074423;28;20445;-53
2022/04/17 03:22:23;;;;;;;13.47;8.57;;;;;;;;;;5074386;28;20430;-53
2022/04/17 03:24:49;;;;;;;13.53;8.57;;;;;;;;;;5074252;28;20285;-53
2022/04/17 03:27:15;;;;;;;10.63;8.07;;;;;;;;;;5074224;28;20798;-53
2022/04/17 03:29:41;;;;;;;10.67;8.23;;;;;;;;;;5073994;28;20671;-53
2022/04/17 03:32:07;;;;;;;11.53;8.97;;;;;;;;;;5074157;28;20234;-53
2022/04/17 03:34:34;;;;;;;11.47;7.87;;;;;;;;;;5074256;28;20446;-52
2022/04/17 03:37:00;;;;;;;12.90;9.00;;;;;;;;;;5074032;28;20434;-53
2022/04/17 03:39:26;;;;;;;11.13;8.53;;;;;;;;;;5073735;28;20441;-53
2022/04/17 03:41:53;;;;;;;10.87;8.43;;;;;;;;;;5074111;28;20433;-53
2022/04/17 03:44:19;;;;;;;12.20;8.73;;;;;;;;;;5074284;28;20200;-54
2022/04/17 03:46:45;;;;;;;10.80;8.70;;;;;;;;;;5074125;28;20446;-52
2022/04/17 03:49:11;;;;;;;13.50;8.73;;;;;;;;;;5073752;28;20445;-53
2022/04/17 03:51:39;;;;;;;15.33;8.60;;;;;;;;;;5073934;28;20481;-53
2022/04/17 03:54:05;;;;;;;11.73;9.13;;;;;;;;;;5073775;28;20614;-53
2022/04/17 03:56:31;;;;;;;14.40;9.00;;;;;;;;;;5074050;28;20442;-52
2022/04/17 03:58:57;;;;;;;12.53;8.33;;;;;;;;;;5073903;28;20282;-52
2022/04/17 04:01:23;;;;;;;11.83;9.00;;;;;;;;;;5073705;28;20598;-52
2022/04/17 04:03:50;;;;;;;13.93;8.83;;;;;;;;;;5073647;28;20428;-52
2022/04/17 04:06:16;;;;;;;11.90;8.43;;;;;;;;;;5073615;28;20438;-52
2022/04/17 04:08:44;;;;;;;12.23;8.60;;;;;;;;;;5073741;28;20528;-52
2022/04/17 04:11:10;;;;;;;14.40;9.27;;;;;;;;;;5073406;28;20527;-52
2022/04/17 04:13:36;;;;;;;11.53;9.27;;;;;;;;;;5073185;28;20450;-53
2022/04/17 04:16:02;;;;;;;12.40;8.67;;;;;;;;;;5073274;28;20692;-53
2022/04/17 04:18:28;;;;;;;13.03;9.10;;;;;;;;;;5073575;28;20195;-53
2022/04/17 04:20:54;;;;;;;14.13;9.13;;;;;;;;;;5073378;28;20513;-53
2022/04/17 04:23:22;;;;;;;11.87;8.83;;;;;;;;;;5072721;28;20521;-53
2022/04/17 04:25:49;;;;;;;13.90;9.20;;;;;;;;;;5073235;28;20292;-53
2022/04/17 04:28:33;;;;;;;12.77;8.73;;;;;;;;;;5072931;28;20445;-53
2022/04/17 04:30:59;;;;;;;12.60;8.70;;;;;;;;;;5073057;28;20568;-53
2022/04/17 04:33:25;;;;;;;12.63;8.03;;;;;;;;;;5072973;28;20521;-53
2022/04/17 04:35:51;;;;;;;12.00;8.77;;;;;;;;;;5073070;28;20195;-52
2022/04/17 04:38:17;;;;;;;11.13;9.23;;;;;;;;;;5072767;28;20963;-52
2022/04/17 04:40:43;;;;;;;12.67;8.70;;;;;;;;;;5072970;28;20474;-52
2022/04/17 04:43:12;;;;;;;14.83;8.70;;;;;;;;;;5072095;28;20686;-52
2022/04/17 04:51:07;;;;;;;12.43;9.00;;;;;;;;;;5072598;28;21015;-52
2022/04/17 04:53:33;;;;;;;11.30;8.63;;;;;;;;;;5072622;28;20442;-52
2022/04/17 04:56:00;;;;;;;11.03;8.83;;;;;;;;;;5072591;28;20445;-52
2022/04/17 04:58:27;;;;;;;15.17;9.60;;;;;;;;;;5072601;28;20711;-53
2022/04/17 05:00:53;;;;;;;10.53;8.67;;;;;;;;;;5072660;28;20433;-53
2022/04/17 05:03:19;;;;;;;11.33;8.67;;;;;;;;;;5072498;28;20446;-53
2022/04/17 05:05:45;;;;;;;11.87;8.87;;;;;;;;;;5072462;28;20199;-53
2022/04/17 05:08:12;;;;;;;11.03;8.50;;;;;;;;;;5072457;28;20560;-52
2022/04/17 05:10:38;;;;;;;12.70;8.77;;;;;;;;;;5072469;28;20740;-52
2022/04/17 05:13:05;;;;;;;13.73;9.00;;;;;;;;;;5072390;28;20441;-53
2022/04/17 05:15:32;;;;;;;13.60;8.77;;;;;;;;;;5072644;28;20430;-53
2022/04/17 05:17:58;;;;;;;8.83;7.77;;;;;;;;;;5071045;28;20951;-53
2022/04/17 05:20:26;;;;;;;10.97;8.37;;;;;;;;;;5072433;28;20458;-53
2022/04/17 05:22:56;;;;;;;10.37;8.40;;;;;;;;;;5072199;28;20215;-53
2022/04/17 05:25:22;;;;;;;11.23;7.60;;;;;;;;;;5071039;28;20844;-53
2022/04/17 05:27:48;;;;;;;11.43;8.17;;;;;;;;;;5072183;28;20516;-53
2022/04/17 05:30:14;;;;;;;10.43;7.63;;;;;;;;;;5072089;28;20477;-53
2022/04/17 05:32:41;;;;;;;10.37;7.67;;;;;;;;;;5072306;28;20317;-53
2022/04/17 05:35:07;;;;;;;8.93;7.67;;;;;;;;;;5071971;28;20724;-53
2022/04/17 05:37:33;;;;;;;8.70;7.47;;;;;;;;;;5071982;28;20764;-53
2022/04/17 05:39:59;;;;;;;10.37;7.23;;;;;;;;;;5072230;28;20440;-53
2022/04/17 05:42:25;;;;;;;9.73;7.60;;;;;;;;;;5071869;28;20249;-53
2022/04/17 05:44:52;;;;;;;11.13;7.27;;;;;;;;;;5071868;28;20206;-53
2022/04/17 05:47:18;;;;;;;9.07;7.23;;;;;;;;;;5071924;28;20594;-53
2022/04/17 05:49:46;;;;;;;13.17;7.40;;;;;;;;;;5071693;28;20472;-53
2022/04/17 05:52:12;;;;;;;10.67;6.97;;;;;;;;;;5071877;28;20865;-54
2022/04/17 05:54:43;;;;;;;9.53;7.00;;;;;;;;;;5072035;28;20528;-54
2022/04/17 05:57:09;;;;;;;10.80;7.27;;;;;;;;;;5071872;28;20430;-54
2022/04/17 05:59:36;;;;;;;10.57;6.90;;;;;;;;;;5071831;28;20857;-54
2022/04/17 06:02:02;;;;;;;9.77;7.37;;;;;;;;;;5071783;28;20200;-54
2022/04/17 06:04:28;;;;;;;9.27;6.60;;;;;;;;;;5071972;28;20442;-54
2022/04/17 06:06:56;;;;;;;9.40;7.20;;;;;;;;;;5071773;28;20436;-54
2022/04/17 06:09:22;;;;;;;11.67;7.23;;;;;;;;;;5071749;28;20203;-54
2022/04/17 06:11:48;;;;;;;9.40;6.30;;;;;;;;;;5071779;28;20851;-54
2022/04/17 06:14:14;;;;;;;8.80;6.90;;;;;;;;;;5071734;28;20199;-54
2022/04/17 06:16:40;;;;;;;9.20;6.37;;;;;;;;;;5071800;28;20552;-54
2022/04/17 06:19:09;;;;;;;10.13;6.63;;;;;;;;;;5071733;28;20211;-54
2022/04/17 06:21:35;;;;;;;10.40;6.43;;;;;;;;;;5071674;28;20521;-54
2022/04/17 06:24:02;;;;;;;7.70;6.00;;;;;;;;;;5071481;28;20528;-54
2022/04/17 06:26:28;;;;;;;8.20;5.90;;;;;;;;;;5071464;28;20200;-54
2022/04/17 06:28:54;;;;;;;7.77;5.67;;;;;;;;;;5071785;28;20516;-55
2022/04/17 06:31:20;;;;;;;7.67;6.00;;;;;;;;;;5071338;28;20326;-54
2022/04/17 06:33:46;;;;;;;7.87;5.73;;;;;;;;;;5071627;28;20204;-54
2022/04/17 06:36:12;;;;;;;8.30;5.43;;;;;;;;;;5073208;28;20199;-54
2022/04/17 06:38:38;;;;;;;6.40;5.63;;;;;;;;;;5075463;28;20195;-54
2022/04/17 06:41:05;;;;;;;7.07;5.73;;;;;;;;;;5075259;28;20282;-54
2022/04/17 06:43:31;;;;;;;7.53;5.73;;;;;;;;;;5075449;28;20217;-54
2022/04/17 06:45:57;;;;;;;5.17;4.63;;;;;;;;;;5075230;28;20620;-54
2022/04/17 06:48:25;;;;;;;8.80;5.33;;;;;;;;;;5074865;28;20211;-54
2022/04/17 06:50:52;;;;;;;6.83;5.27;;;;;;;;;;5075013;28;20227;-54
2022/04/17 06:53:18;;;;;;;6.87;4.83;;;;;;;;;;5074969;28;20654;-54
2022/04/17 06:55:44;;;;;;;6.87;4.70;;;;;;;;;;5075147;28;20249;-53
2022/04/17 06:58:11;;;;;;;6.57;4.77;;;;;;;;;;5074754;28;20198;-48
2022/04/17 07:00:37;;;;;;;6.57;4.60;;;;;;;;;;5074967;28;20253;-53
2022/04/17 07:03:04;;;;;;;6.47;4.63;;;;;;;;;;5074925;28;20207;-53
2022/04/17 07:05:30;;;;;;;6.10;4.60;;;;;;;;;;5074818;28;20205;-53
2022/04/17 07:07:58;;;;;;;6.73;5.10;;;;;;;;;;5074846;28;20715;-54
2022/04/17 07:10:24;;;;;;;7.00;5.07;;;;;;;;;;5074533;28;20761;-54
2022/04/17 07:12:51;;;;;;;5.03;4.50;;;;;;;;;;5074604;28;20200;-55
2022/04/17 07:15:19;;;;;;;5.83;4.23;;;;;;;;;;5074612;28;20203;-54
2022/04/17 07:17:46;;;;;;;6.10;4.60;;;;;;;;;;5074600;28;20207;-53
2022/04/17 07:20:12;;;;;;;6.57;5.17;;;;;;;;;;5074250;28;20646;-54
2022/04/17 07:22:39;;;;;;;7.73;5.00;;;;;;;;;;5070234;28;20208;-54
2022/04/17 07:25:06;;;;;;;5.57;4.50;;;;;;;;;;5073638;28;20624;-53
2022/04/17 07:27:36;;;;;;;6.70;4.43;;;;;;;;;;5073892;28;20650;-54
2022/04/17 07:30:02;;;;;;;7.33;4.53;;;;;;;;;;5074184;28;20223;-54
2022/04/17 07:32:30;;;;;;;8.77;4.90;;;;;;;;;;5074237;28;20192;-53
2022/04/17 07:34:56;;;;;;;5.80;4.70;;;;;;;;;;5074199;28;20264;-54
2022/04/17 07:37:25;;;;;;;6.17;4.87;;;;;;;;;;5073925;28;20235;-54
2022/04/17 07:39:52;;;;;;;6.07;4.30;;;;;;;;;;5074034;28;20223;-54
2022/04/17 07:42:19;;;;;;;6.23;4.67;;;;;;;;;;5073970;28;20207;-54
2022/04/17 07:44:45;;;;;;;6.43;4.67;;;;;;;;;;5074168;28;20200;-54
2022/04/17 07:47:11;;;;;;;6.40;4.70;;;;;;;;;;5073348;28;20199;-54
2022/04/17 07:49:38;;;;;;;6.77;5.07;;;;;;;;;;5073748;28;20661;-54
2022/04/17 07:52:05;;;;;;;4.33;3.80;;;;;;;;;;5073892;28;20211;-53
2022/04/17 07:54:31;;;;;;;5.60;4.60;;;;;;;;;;5074112;28;20204;-53
2022/04/17 07:56:57;;;;;;;6.80;5.23;;;;;;;;;;5073880;28;20546;-53
2022/04/17 07:59:25;;;;;;;5.67;4.27;;;;;;;;;;5073931;28;20377;-54
2022/04/17 08:01:51;;;;;;;4.03;3.63;;;;;;;;;;5073823;28;20195;-53
2022/04/17 08:04:17;;;;;;;5.97;4.27;;;;;;;;;;5073628;28;20203;-53
2022/04/17 08:06:44;;;;;;;5.07;3.80;;;;;;;;;;5073740;28;20274;-53
2022/04/17 08:09:10;;;;;;;5.20;3.80;;;;;;;;;;5073579;28;20204;-53
2022/04/17 08:11:37;;;;;;;4.67;3.90;;;;;;;;;;5072519;28;20260;-53
2022/04/17 08:14:03;;;;;;;4.03;3.63;;;;;;;;;;5073383;28;20199;-52
2022/04/17 08:16:29;;;;;;;3.90;3.30;;;;;;;;;;5073640;28;20201;-53
2022/04/17 08:18:55;;;;;;;5.13;3.60;;;;;;;;;;5073439;28;20241;-53
2022/04/17 08:21:21;;;;;;;6.17;4.70;;;;;;;;;;5073278;28;20580;-53
2022/04/17 08:23:49;;;;;;;5.17;3.87;;;;;;;;;;5073264;28;20240;-53
2022/04/17 08:26:15;;;;;;;4.20;3.80;;;;;;;;;;5073009;28;20239;-53
2022/04/17 08:28:41;;;;;;;7.93;5.70;;;;;;;;;;5073116;28;20191;-54
2022/04/17 08:31:10;;;;;;;6.00;4.50;;;;;;;;;;5073008;28;20845;-54
2022/04/17 08:33:36;;;;;;;5.50;3.97;;;;;;;;;;5073006;28;20200;-54
2022/04/17 08:36:03;;;;;;;5.33;4.00;;;;;;;;;;5072964;28;20198;-54
2022/04/17 08:38:29;;;;;;;4.57;3.50;;;;;;;;;;5072957;28;20223;-54
2022/04/17 08:40:58;;;;;;;5.57;3.90;;;;;;;;;;5072946;28;20249;-54
2022/04/17 08:43:25;;;;;;;5.47;3.50;;;;;;;;;;5072789;28;20219;-54
2022/04/17 08:45:53;;;;;;;3.93;3.40;;;;;;;;;;5072847;28;20242;-54
2022/04/17 08:48:19;;;;;;;5.07;3.67;;;;;;;;;;5072644;28;20204;-54
2022/04/17 08:50:47;;;;;;;4.03;3.10;;;;;;;;;;5072634;28;20310;-54
2022/04/17 08:53:15;;;;;;;4.93;3.47;;;;;;;;;;5072721;28;20512;-55
2022/04/17 08:55:41;;;;;;;4.30;2.83;;;;;;;;;;5072722;28;20186;-56
2022/04/17 08:58:10;;;;;;;3.97;3.00;;;;;;;;;;5072454;28;20227;-55
2022/04/17 09:00:36;;;;;;;5.60;3.43;;;;;;;;;;5072454;28;20662;-53
2022/04/17 09:03:03;;;;;;;5.23;3.23;;;;;;;;;;5072552;28;20195;-53
2022/04/17 09:05:33;;;;;;;2.50;2.30;;;;;;;;;;5072472;28;20193;-53
2022/04/17 09:08:11;;;;;;;4.20;2.90;;;;;;;;;;5072394;28;20275;-55
2022/04/17 09:10:37;;;;;;;5.23;3.07;;;;;;;;;;5072305;28;20247;-53
2022/04/17 09:13:04;;;;;;;3.97;2.80;;;;;;;;;;5072264;28;20663;-53
2022/04/17 09:15:32;;;;;;;3.87;2.67;;;;;;;;;;5072353;28;20278;-53
2022/04/17 09:17:59;;;;;;;4.33;2.53;;;;;;;;;;5072308;28;20204;-53
2022/04/17 09:20:25;;;;;;;3.97;2.50;;;;;;;;;;5072045;28;20211;-53
2022/04/17 09:22:52;;;;;;;6.23;2.63;;;;;;;;;;5071725;28;20317;-54
2022/04/17 09:25:18;;;;;;;4.40;2.63;;;;;;;;;;5071491;28;20737;-53
2022/04/17 09:27:57;;;;;;;2.50;2.30;;;;;;;;;;5071820;28;20199;-53
2022/04/17 09:30:25;;;;;;;3.17;2.87;;;;;;;;;;5071605;28;20713;-53
2022/04/17 09:32:53;;;;;;;2.73;2.37;;;;;;;;;;5071808;28;20711;-54
2022/04/17 09:35:22;;;;;;;3.37;2.40;;;;;;;;;;5071718;28;20700;-56
2022/04/17 09:37:48;;;;;;;2.67;2.40;;;;;;;;;;5071944;28;20651;-53
2022/04/17 09:40:19;;;;;;;3.23;2.10;;;;;;;;;;5071916;28;20292;-53
2022/04/17 09:42:47;;;;;;;3.90;2.30;;;;;;;;;;5072023;28;20203;-53
2022/04/17 09:45:13;;;;;;;3.33;2.30;;;;;;;;;;5071851;28;20674;-54
2022/04/17 09:47:39;;;;;;;3.80;2.43;;;;;;;;;;5071825;28;20671;-54
2022/04/17 09:50:08;;;;;;;3.07;2.10;;;;;;;;;;5071731;28;20205;-54
2022/04/17 09:52:35;;;;;;;3.67;2.50;;;;;;;;;;5071908;28;20228;-53
2022/04/17 09:55:01;;;;;;;3.17;2.20;;;;;;;;;;5071823;28;20204;-54
2022/04/17 09:57:31;;;;;;;3.07;2.00;;;;;;;;;;5071721;28;20198;-54
2022/04/17 09:59:57;;;;;;;3.27;2.40;;;;;;;;;;5071749;28;20191;-53
2022/04/17 10:02:25;;;;;;;2.23;2.03;;;;;;;;;;5071528;28;20202;-53
2022/04/17 10:04:51;;;;;;;2.37;1.87;;;;;;;;;;5071010;28;20238;-53
2022/04/17 10:07:22;;;;;;;6.40;2.10;;;;;;;;;;5071122;28;20198;-53
2022/04/17 10:09:48;;;;;;;3.37;1.90;;;;;;;;;;5072038;28;20232;-53
2022/04/17 10:12:19;;;;;;;1.90;1.70;;;;;;;;;;5075179;28;20237;-53
2022/04/17 10:14:48;;;;;;;4.20;3.47;;;;;;;;;;5076024;28;20235;-54
2022/04/17 10:17:14;;;;;;;2.17;1.90;;;;;;;;;;5075500;28;20243;-53
2022/04/17 10:19:42;;;;;;;2.50;1.73;;;;;;;;;;5075793;28;20198;-54
2022/04/17 10:22:10;;;;;;;2.47;2.27;;;;;;;;;;5073720;28;20235;-53
2022/04/17 10:24:38;;;;;;;2.57;1.83;;;;;;;;;;5073353;28;20245;-53
2022/04/17 10:27:06;;;;;;;1.90;1.70;;;;;;;;;;5074354;28;20225;-54
2022/04/17 10:29:35;;;;;;;2.70;1.60;;;;;;;;;;5074946;28;20594;-54
2022/04/17 10:32:09;;;;;;;2.50;1.67;;;;;;;;;;5075662;28;20332;-54
2022/04/17 10:34:48;;;;;;;1.90;1.70;;;;;;;;;;5075511;28;20230;-54
2022/04/17 10:37:22;;;;;;;2.40;1.70;;;;;;;;;;5075216;28;20211;-52
2022/04/17 10:39:51;;;;;;;2.57;1.60;;;;;;;;;;5075279;28;20199;-53
2022/04/17 10:42:17;;;;;;;2.57;1.70;;;;;;;;;;5075092;28;20195;-54
2022/04/17 10:44:45;;;;;;;2.00;1.57;;;;;;;;;;5075034;28;20194;-54
2022/04/17 10:47:20;;;;;;;1.83;1.40;;;;;;;;;;5074960;28;20653;-54
2022/04/17 10:49:53;;;;;;;2.43;1.87;;;;;;;;;;5075263;28;20199;-53
2022/04/17 10:52:25;;;;;;;1.83;1.73;;;;;;;;;;5074762;28;20348;-54
2022/04/17 10:54:52;;;;;;;2.07;1.70;;;;;;;;;;5075063;28;20201;-54
2022/04/17 10:57:22;;;;;;;1.80;1.60;;;;;;;;;;5074722;28;20224;-54
2022/04/17 10:59:48;;;;;;;2.80;1.73;;;;;;;;;;5074807;28;20259;-53
2022/04/17 11:02:23;;;;;;;3.47;2.00;;;;;;;;;;5074735;28;20206;-53
2022/04/17 11:04:53;;;;;;;2.30;1.90;;;;;;;;;;5074509;28;20207;-54
2022/04/17 11:07:26;;;;;;;2.43;2.23;;;;;;;;;;5074468;28;20560;-54
2022/04/17 11:10:07;;;;;;;2.33;1.80;;;;;;;;;;5074719;28;20202;-54
2022/04/17 11:12:47;;;;;;;2.00;1.90;;;;;;;;;;5072240;28;20216;-54
2022/04/17 11:15:28;;;;;;;2.23;2.03;;;;;;;;;;5074698;28;20223;-52
2022/04/17 11:17:55;;;;;;;2.40;1.97;;;;;;;;;;5074631;28;20285;-53
2022/04/17 11:20:22;;;;;;;2.27;1.90;;;;;;;;;;5074333;28;20277;-54
2022/04/17 11:22:48;;;;;;;2.10;1.90;;;;;;;;;;5073368;28;20209;-53
2022/04/17 11:25:14;;;;;;;2.70;2.27;;;;;;;;;;5074167;28;20249;-53
2022/04/17 11:27:45;;;;;;;2.23;2.03;;;;;;;;;;5074338;28;20290;-54
2022/04/17 11:30:30;;;;;;;2.63;2.17;;;;;;;;;;5074085;28;20697;-53
2022/04/17 11:32:56;;;;;;;2.50;2.30;;;;;;;;;;5073998;28;20563;-53
2022/04/17 11:35:23;;;;;;;4.80;4.40;;;;;;;;;;5074119;28;20195;-54
2022/04/17 11:37:51;;;;;;;7.17;2.07;;;;;;;;;;5074020;28;20195;-54
2022/04/17 11:40:19;;;;;;;2.30;1.97;;;;;;;;;;5074031;28;20657;-54
2022/04/17 11:42:46;;;;;;;6.50;2.50;;;;;;;;;;5074338;28;20209;-52
2022/04/17 11:45:13;;;;;;;2.27;2.00;;;;;;;;;;5073910;28;20619;-54
2022/04/17 11:47:41;;;;;;;2.93;2.07;;;;;;;;;;5074244;28;20540;-54
2022/04/17 11:50:09;;;;;;;3.03;2.07;;;;;;;;;;5074164;28;20215;-54
2022/04/17 11:52:35;;;;;;;3.20;2.13;;;;;;;;;;5073896;28;20278;-53
2022/04/17 11:55:01;;;;;;;3.20;1.90;;;;;;;;;;5074063;28;20568;-54
2022/04/17 11:57:27;;;;;;;3.40;2.00;;;;;;;;;;5073674;28;20210;-54
2022/04/17 11:59:54;;;;;;;4.17;2.20;;;;;;;;;;5073982;28;20187;-52
2022/04/17 12:02:21;;;;;;;4.10;1.83;;;;;;;;;;5073716;28;20192;-52
2022/04/17 12:04:49;;;;;;;3.37;1.70;;;;;;;;;;5073863;28;20207;-54
2022/04/17 12:07:18;;;;;;;2.10;1.77;;;;;;;;;;5073549;28;20207;-54
2022/04/17 12:09:46;;;;;;;2.33;1.80;;;;;;;;;;5073838;28;20552;-54
2022/04/17 12:12:12;;;;;;;2.93;2.63;;;;;;;;;;5072192;28;20635;-54
2022/04/17 12:14:39;;;;;;;2.77;2.17;;;;;;;;;;5073685;28;20196;-54
2022/04/17 12:17:05;;;;;;;2.20;1.70;;;;;;;;;;5073224;28;20222;-54
2022/04/17 12:19:31;;;;;;;2.97;2.07;;;;;;;;;;5073250;28;20203;-54
2022/04/17 12:21:59;;;;;;;3.20;1.90;;;;;;;;;;5073341;28;20195;-53
2022/04/17 12:24:28;;;;;;;2.00;1.80;;;;;;;;;;5072780;28;20322;-53
2022/04/17 12:26:54;;;;;;;2.00;1.77;;;;;;;;;;5073192;28;20224;-54
2022/04/17 12:29:21;;;;;;;2.47;2.10;;;;;;;;;;5072982;28;20195;-54
2022/04/17 12:31:47;;;;;;;2.80;2.20;;;;;;;;;;5073104;28;20381;-53
2022/04/17 12:34:15;;;;;;;2.43;1.63;;;;;;;;;;5070814;28;20231;-53
2022/04/17 12:36:44;;;;;;;2.40;1.50;;;;;;;;;;5071111;28;20278;-53
2022/04/17 12:39:12;;;;;;;2.03;1.70;;;;;;;;;;5072618;28;20683;-53
2022/04/17 12:41:40;;;;;;;1.80;1.70;;;;;;;;;;5072817;28;20195;-52
2022/04/17 12:44:06;;;;;;;3.50;2.37;;;;;;;;;;5072926;28;20227;-53
2022/04/17 12:46:33;;;;;;;1.80;1.60;;;;;;;;;;5072759;28;20210;-53
2022/04/17 12:49:06;;;;;;;4.30;2.73;;;;;;;;;;5072734;28;20281;-54
2022/04/17 12:51:32;;;;;;;3.70;1.70;;;;;;;;;;5072531;28;20306;-53
2022/04/17 12:53:58;;;;;;;2.03;1.57;;;;;;;;;;5072717;28;20279;-53
2022/04/17 12:56:26;;;;;;;2.77;1.50;;;;;;;;;;5072642;28;20310;-53
2022/04/17 12:58:53;;;;;;;2.47;1.40;;;;;;;;;;5072757;28;20671;-53
2022/04/17 13:01:21;;;;;;;3.60;1.40;;;;;;;;;;5072649;28;20256;-53
2022/04/17 13:03:47;;;;;;;1.60;1.30;;;;;;;;;;5072776;28;20195;-53
2022/04/17 13:06:18;;;;;;;1.97;1.20;;;;;;;;;;5072030;28;20196;-53
2022/04/17 13:09:00;;;;;;;2.43;1.33;;;;;;;;;;5072482;28;20200;-54
2022/04/17 13:11:31;;;;;;;1.77;1.33;;;;;;;;;;5072294;28;20310;-54
2022/04/17 13:14:01;;;;;;;2.27;1.47;;;;;;;;;;5072430;28;20204;-53
2022/04/17 13:16:28;;;;;;;1.83;1.60;;;;;;;;;;5072476;28;20199;-52
2022/04/17 13:18:54;;;;;;;1.83;1.53;;;;;;;;;;5071004;28;20684;-54
2022/04/17 13:21:20;;;;;;;1.40;1.30;;;;;;;;;;5072366;28;20200;-52
2022/04/17 13:23:46;;;;;;;1.93;1.40;;;;;;;;;;5072434;28;20224;-53
2022/04/17 13:26:12;;;;;;;1.60;1.50;;;;;;;;;;5072135;28;20251;-56
2022/04/17 13:28:40;;;;;;;1.50;1.40;;;;;;;;;;5072240;28;20283;-52
2022/04/17 13:31:06;;;;;;;1.90;1.50;;;;;;;;;;5072130;28;20228;-52
2022/04/17 13:33:32;;;;;;;1.70;1.30;;;;;;;;;;5071991;28;20681;-52
2022/04/17 13:35:58;;;;;;;7.10;4.90;;;;;;;;;;5072179;28;20192;-52
2022/04/17 13:38:24;;;;;;;3.73;1.50;;;;;;;;;;5071818;28;20200;-52
2022/04/17 13:40:50;;;;;;;2.67;1.60;;;;;;;;;;5072109;28;20187;-45
2022/04/17 13:43:16;;;;;;;1.63;1.40;;;;;;;;;;5071923;28;20245;-54
2022/04/17 13:45:44;;;;;;;1.70;1.40;;;;;;;;;;5071183;28;20207;-53
2022/04/17 13:48:10;;;;;;;2.93;1.70;;;;;;;;;;5072006;28;20568;-53
2022/04/17 13:50:37;;;;;;;3.53;2.60;;;;;;;;;;5071770;28;20223;-55
2022/04/17 13:53:03;;;;;;;2.17;1.70;;;;;;;;;;5072088;28;20270;-54
2022/04/17 13:55:29;;;;;;;2.63;1.90;;;;;;;;;;5072020;28;20684;-54
2022/04/17 13:58:01;;;;;;;1.93;1.70;;;;;;;;;;5072087;28;20206;-53
2022/04/17 14:00:28;;;;;;;2.03;1.33;;;;;;;;;;5068487;28;20202;-54
2022/04/17 14:02:55;;;;;;;3.07;1.60;;;;;;;;;;5072156;28;20191;-54
2022/04/17 14:05:21;;;;;;;2.70;1.60;;;;;;;;;;5071836;28;20207;-53
2022/04/17 14:07:48;;;;;;;2.03;1.70;;;;;;;;;;5072149;28;20538;-55
2022/04/17 14:10:14;;;;;;;2.50;1.43;;;;;;;;;;5071770;28;20661;-53
2022/04/17 14:12:40;;;;;;;2.23;2.03;;;;;;;;;;5072033;28;20206;-55
2022/04/17 14:15:07;;;;;;;5.77;4.70;;;;;;;;;;5071760;28;20199;-54
2022/04/17 14:17:33;;;;;;;6.30;2.83;;;;;;;;;;5071646;28;20199;-53
2022/04/17 14:20:00;;;;;;;3.00;2.30;;;;;;;;;;5071769;28;20195;-54
2022/04/17 14:22:26;;;;;;;1.60;1.50;;;;;;;;;;5071792;28;20191;-54
2022/04/17 14:24:52;;;;;;;1.73;1.50;;;;;;;;;;5071496;28;20232;-54
2022/04/17 14:27:19;;;;;;;1.80;1.50;;;;;;;;;;5071428;28;20218;-54
2022/04/17 14:29:45;;;;;;;2.33;1.40;;;;;;;;;;5071624;28;20665;-55
2022/04/17 14:32:11;;;;;;;6.00;2.03;;;;;;;;;;5071594;28;20225;-53
2022/04/17 14:34:38;;;;;;;1.50;1.40;;;;;;;;;;5071273;28;20199;-54
2022/04/17 14:37:05;;;;;;;1.83;1.30;;;;;;;;;;5071222;28;20665;-54
2022/04/17 14:39:31;;;;;;;2.77;1.70;;;;;;;;;;5071534;28;20199;-54
2022/04/17 14:41:58;;;;;;;2.60;1.20;;;;;;;;;;5071542;28;20200;-53
2022/04/17 14:44:24;;;;;;;2.13;1.60;;;;;;;;;;5071426;28;20200;-54
2022/04/17 14:46:50;;;;;;;1.20;1.10;;;;;;;;;;5071328;28;20229;-54
2022/04/17 14:49:16;;;;;;;2.37;1.50;;;;;;;;;;5071455;28;20206;-54
2022/04/17 14:51:42;;;;;;;1.60;1.50;;;;;;;;;;5063531;28;20220;-54
2022/04/17 14:54:13;;;;;;;2.90;1.40;;;;;;;;;;5069251;28;20209;-54
2022/04/17 14:56:39;;;;;;;1.63;1.50;;;;;;;;;;5071045;28;20217;-53